createdAt,value
2016-11-22T00:00:07.406Z,996.14
2016-11-22T00:01:07.391Z,996.12
2016-11-22T00:02:07.374Z,996.06
2016-11-22T00:03:07.359Z,995.99
2016-11-22T00:04:07.345Z,996.02
2016-11-22T00:05:07.321Z,996.11
2016-11-22T00:06:07.311Z,996.13
2016-11-22T00:07:07.287Z,996.09
2016-11-22T00:08:07.269Z,996.17
2016-11-22T00:09:07.257Z,996.16
2016-11-22T00:10:07.229Z,996.22
2016-11-22T00:11:07.217Z,996.32
2016-11-22T00:12:07.198Z,996.38
2016-11-22T00:13:07.185Z,996.39
2016-11-22T00:14:07.159Z,996.51
2016-11-22T00:15:07.146Z,996.47
2016-11-22T00:16:07.130Z,996.32
2016-11-22T00:17:07.110Z,996.56
2016-11-22T00:18:07.091Z,996.51
2016-11-22T00:19:07.073Z,996.54
2016-11-22T00:20:07.056Z,996.56
2016-11-22T00:21:07.039Z,996.57
2016-11-22T00:22:07.021Z,996.58
2016-11-22T00:23:07.003Z,996.53
2016-11-22T00:24:06.988Z,996.64
2016-11-22T00:25:06.970Z,996.47
2016-11-22T00:26:06.949Z,996.5
2016-11-22T00:27:06.933Z,996.5
2016-11-22T00:28:06.917Z,996.43
2016-11-22T00:29:06.900Z,996.46
2016-11-22T00:30:06.879Z,996.44
2016-11-22T00:31:06.863Z,996.48
2016-11-22T00:32:06.845Z,996.39
2016-11-22T00:33:06.880Z,996.46
2016-11-22T00:34:06.810Z,996.56
2016-11-22T00:35:06.799Z,996.54
2016-11-22T00:36:06.775Z,996.64
2016-11-22T00:37:06.807Z,996.63
2016-11-22T00:38:06.744Z,996.64
2016-11-22T00:39:06.720Z,996.52
2016-11-22T00:40:06.704Z,996.57
2016-11-22T00:41:06.789Z,996.54
2016-11-22T00:42:06.669Z,996.54
2016-11-22T00:43:06.705Z,996.46
2016-11-22T00:44:06.634Z,996.48
2016-11-22T00:45:06.617Z,996.44
2016-11-22T00:46:06.601Z,996.39
2016-11-22T00:47:06.602Z,996.25
2016-11-22T00:48:06.563Z,996.28
2016-11-22T00:49:06.600Z,996.28
2016-11-22T00:50:06.529Z,996.27
2016-11-22T00:51:06.516Z,996.26
2016-11-22T00:52:06.500Z,996.27
2016-11-22T00:53:06.580Z,996.28
2016-11-22T00:54:06.459Z,996.3
2016-11-22T00:55:06.440Z,996.27
2016-11-22T00:56:06.422Z,996.19
2016-11-22T00:57:06.459Z,996.13
2016-11-22T00:58:06.388Z,996.1
2016-11-22T00:59:06.370Z,996.03
2016-11-22T01:00:06.351Z,996.09
2016-11-22T01:01:06.334Z,996.1
2016-11-22T01:02:06.317Z,996.16
2016-11-22T01:03:06.301Z,996.18
2016-11-22T01:04:06.280Z,996.19
2016-11-22T01:05:06.269Z,996.12
2016-11-22T01:06:06.247Z,996.14
2016-11-22T01:07:06.229Z,996.05
2016-11-22T01:08:06.210Z,995.98
2016-11-22T01:09:06.192Z,996.02
2016-11-22T01:10:06.173Z,996.07
2016-11-22T01:11:06.166Z,996.21
2016-11-22T01:12:06.139Z,996.28
2016-11-22T01:13:06.173Z,996.33
2016-11-22T01:14:06.111Z,996.37
2016-11-22T01:15:06.085Z,996.39
2016-11-22T01:16:06.066Z,996.33
2016-11-22T01:17:06.050Z,996.3
2016-11-22T01:18:06.032Z,996.36
2016-11-22T01:19:06.011Z,996.31
2016-11-22T01:20:06.001Z,996.27
2016-11-22T01:21:05.981Z,996.24
2016-11-22T01:22:05.961Z,996.29
2016-11-22T01:23:05.941Z,996.22
2016-11-22T01:24:05.920Z,996.17
2016-11-22T01:25:05.905Z,996.27
2016-11-22T01:26:05.888Z,996.25
2016-11-22T01:27:05.865Z,996.22
2016-11-22T01:28:05.848Z,996.12
2016-11-22T01:29:05.830Z,996.2
2016-11-22T01:30:05.812Z,996.19
2016-11-22T01:31:05.799Z,996.14
2016-11-22T01:32:05.780Z,996.09
2016-11-22T01:33:05.763Z,996.13
2016-11-22T01:34:05.740Z,996.14
2016-11-22T01:35:05.722Z,996.15
2016-11-22T01:36:05.702Z,996.18
2016-11-22T01:37:05.686Z,996.26
2016-11-22T01:38:05.664Z,996.24
2016-11-22T01:39:05.652Z,996.25
2016-11-22T01:40:05.628Z,996.3
2016-11-22T01:41:05.622Z,996.3
2016-11-22T01:42:05.591Z,996.31
2016-11-22T01:43:05.571Z,996.27
2016-11-22T01:44:05.552Z,996.19
2016-11-22T01:45:05.532Z,996.26
2016-11-22T01:46:05.523Z,996.21
2016-11-22T01:47:05.499Z,996.29
2016-11-22T01:48:05.478Z,996.22
2016-11-22T01:49:05.461Z,996.23
2016-11-22T01:50:05.444Z,996.27
2016-11-22T01:51:05.425Z,996.31
2016-11-22T01:52:05.404Z,996.32
2016-11-22T01:53:05.392Z,996.38
2016-11-22T01:54:05.372Z,996.4
2016-11-22T01:55:05.351Z,996.36
2016-11-22T01:56:05.332Z,996.41
2016-11-22T01:57:05.323Z,996.46
2016-11-22T01:58:05.302Z,996.5
2016-11-22T01:59:05.277Z,996.58
2016-11-22T02:00:05.261Z,996.59
2016-11-22T02:01:05.241Z,996.51
2016-11-22T02:02:05.221Z,996.53
2016-11-22T02:03:05.212Z,996.49
2016-11-22T02:04:05.188Z,996.43
2016-11-22T02:05:05.171Z,996.42
2016-11-22T02:06:05.151Z,996.39
2016-11-22T02:07:05.133Z,996.43
2016-11-22T02:08:05.120Z,996.45
2016-11-22T02:09:05.101Z,996.36
2016-11-22T02:10:05.080Z,996.41
2016-11-22T02:11:05.061Z,996.36
2016-11-22T02:12:05.052Z,996.35
2016-11-22T02:13:05.027Z,996.31
2016-11-22T02:14:05.011Z,996.27
2016-11-22T02:15:04.993Z,996.25
2016-11-22T02:16:04.971Z,996.28
2016-11-22T02:17:04.956Z,996.24
2016-11-22T02:18:04.940Z,996.3
2016-11-22T02:19:04.921Z,996.27
2016-11-22T02:20:04.900Z,996.21
2016-11-22T02:21:04.879Z,996.19
2016-11-22T02:22:04.863Z,996.26
2016-11-22T02:23:04.850Z,996.21
2016-11-22T02:24:04.827Z,996.21
2016-11-22T02:25:04.808Z,996.23
2016-11-22T02:26:04.789Z,996.21
2016-11-22T02:27:04.777Z,996.31
2016-11-22T02:28:04.762Z,996.28
2016-11-22T02:29:04.740Z,996.3
2016-11-22T02:30:04.719Z,996.27
2016-11-22T02:31:04.699Z,996.38
2016-11-22T02:32:04.678Z,996.37
2016-11-22T02:33:04.663Z,996.47
2016-11-22T02:34:04.647Z,996.3
2016-11-22T02:35:04.627Z,996.23
2016-11-22T02:36:04.608Z,996.24
2016-11-22T02:37:04.586Z,996.25
2016-11-22T02:38:04.574Z,996.26
2016-11-22T02:39:04.552Z,996.28
2016-11-22T02:40:04.535Z,996.36
2016-11-22T02:41:04.516Z,996.34
2016-11-22T02:42:04.497Z,996.22
2016-11-22T02:43:04.478Z,996.27
2016-11-22T02:44:04.456Z,996.2
2016-11-22T02:45:04.447Z,996.22
2016-11-22T02:46:04.421Z,996.13
2016-11-22T02:47:04.402Z,996.09
2016-11-22T02:48:04.387Z,996.11
2016-11-22T02:49:04.366Z,996.3
2016-11-22T02:50:04.346Z,996.32
2016-11-22T02:51:04.328Z,996.57
2016-11-22T02:52:04.317Z,996.77
2016-11-22T02:53:04.295Z,996.73
2016-11-22T02:54:04.272Z,996.74
2016-11-22T02:55:04.263Z,996.91
2016-11-22T02:56:04.235Z,996.92
2016-11-22T02:57:04.216Z,996.97
2016-11-22T02:58:04.196Z,997.02
2016-11-22T02:59:04.186Z,997.02
2016-11-22T03:00:04.162Z,997.05
2016-11-22T03:01:04.142Z,997.05
2016-11-22T03:02:04.127Z,997.04
2016-11-22T03:03:04.106Z,997.07
2016-11-22T03:04:04.087Z,997.09
2016-11-22T03:05:04.075Z,997.14
2016-11-22T03:06:04.056Z,997.05
2016-11-22T03:07:04.036Z,997.17
2016-11-22T03:08:04.014Z,997.21
2016-11-22T03:09:03.995Z,997.22
2016-11-22T03:10:03.976Z,997.19
2016-11-22T03:11:03.960Z,997.18
2016-11-22T03:12:03.946Z,997.19
2016-11-22T03:13:03.921Z,997.13
2016-11-22T03:14:03.906Z,997.11
2016-11-22T03:15:03.887Z,997.05
2016-11-22T03:16:03.864Z,997.03
2016-11-22T03:17:03.856Z,996.94
2016-11-22T03:18:03.835Z,996.97
2016-11-22T03:19:03.816Z,996.98
2016-11-22T03:20:03.798Z,996.93
2016-11-22T03:21:03.777Z,996.93
2016-11-22T03:22:03.761Z,996.82
2016-11-22T03:23:03.748Z,996.84
2016-11-22T03:24:03.718Z,996.85
2016-11-22T03:25:03.707Z,996.92
2016-11-22T03:26:03.686Z,997.07
2016-11-22T03:27:03.665Z,997.17
2016-11-22T03:28:03.646Z,997.2
2016-11-22T03:29:03.635Z,997.21
2016-11-22T03:30:03.615Z,997.25
2016-11-22T03:31:03.588Z,997.2
2016-11-22T03:32:03.572Z,997.18
2016-11-22T03:33:03.555Z,997.15
2016-11-22T03:34:03.536Z,997.17
2016-11-22T03:35:03.517Z,997.15
2016-11-22T03:36:03.498Z,997.24
2016-11-22T03:37:03.482Z,997.26
2016-11-22T03:38:03.465Z,997.32
2016-11-22T03:39:03.443Z,997.22
2016-11-22T03:40:03.427Z,997.2
2016-11-22T03:41:03.417Z,997.22
2016-11-22T03:42:03.390Z,997.23
2016-11-22T03:43:03.375Z,997.22
2016-11-22T03:44:03.356Z,997.22
2016-11-22T03:45:03.335Z,997.14
2016-11-22T03:46:03.315Z,997.09
2016-11-22T03:47:03.299Z,997.08
2016-11-22T03:48:03.286Z,997.11
2016-11-22T03:49:03.265Z,997.16
2016-11-22T03:50:03.242Z,997.15
2016-11-22T03:51:03.225Z,997.19
2016-11-22T03:52:03.206Z,997.22
2016-11-22T03:53:03.190Z,997.23
2016-11-22T03:54:03.169Z,997.21
2016-11-22T03:55:03.155Z,997.21
2016-11-22T03:56:03.138Z,997.23
2016-11-22T03:57:03.116Z,997.25
2016-11-22T03:58:03.096Z,997.26
2016-11-22T03:59:03.081Z,997.23
2016-11-22T04:00:03.060Z,997.18
2016-11-22T04:01:03.046Z,997.18
2016-11-22T04:02:03.026Z,997.26
2016-11-22T04:03:03.005Z,997.28
2016-11-22T04:04:02.987Z,997.3
2016-11-22T04:05:02.967Z,997.32
2016-11-22T04:06:02.948Z,997.31
2016-11-22T04:07:02.928Z,997.29
2016-11-22T04:08:02.910Z,997.29
2016-11-22T04:09:02.897Z,997.33
2016-11-22T04:10:02.875Z,997.26
2016-11-22T04:11:02.856Z,997.27
2016-11-22T04:12:02.842Z,997.37
2016-11-22T04:13:02.825Z,997.48
2016-11-22T04:14:02.800Z,997.62
2016-11-22T04:15:02.784Z,997.64
2016-11-22T04:16:02.763Z,997.6
2016-11-22T04:17:02.746Z,997.61
2016-11-22T04:18:02.726Z,997.62
2016-11-22T04:19:02.705Z,997.72
2016-11-22T04:20:02.690Z,997.75
2016-11-22T04:21:02.669Z,997.77
2016-11-22T04:22:02.649Z,997.76
2016-11-22T04:23:02.635Z,997.72
2016-11-22T04:24:02.616Z,997.74
2016-11-22T04:25:02.595Z,997.76
2016-11-22T04:26:02.576Z,997.8
2016-11-22T04:27:02.556Z,997.82
2016-11-22T04:28:02.541Z,997.84
2016-11-22T04:29:02.523Z,997.85
2016-11-22T04:30:02.500Z,997.8
2016-11-22T04:31:02.483Z,997.81
2016-11-22T04:32:02.465Z,997.77
2016-11-22T04:33:02.446Z,997.7
2016-11-22T04:34:02.428Z,997.69
2016-11-22T04:35:02.428Z,997.59
2016-11-22T04:36:02.394Z,997.41
2016-11-22T04:37:02.380Z,997.4
2016-11-22T04:38:02.352Z,997.43
2016-11-22T04:39:02.334Z,997.5
2016-11-22T04:40:02.313Z,997.6
2016-11-22T04:41:02.297Z,997.72
2016-11-22T04:42:02.281Z,997.81
2016-11-22T04:43:02.258Z,997.95
2016-11-22T04:44:02.241Z,998.1
2016-11-22T04:45:02.222Z,998.22
2016-11-22T04:46:02.203Z,998.38
2016-11-22T04:47:02.187Z,998.56
2016-11-22T04:48:02.164Z,998.56
2016-11-22T04:49:02.155Z,998.7
2016-11-22T04:50:02.129Z,998.72
2016-11-22T04:51:02.108Z,998.77
2016-11-22T04:52:02.093Z,998.82
2016-11-22T04:53:02.078Z,998.77
2016-11-22T04:54:02.057Z,998.77
2016-11-22T04:55:02.039Z,998.79
2016-11-22T04:56:02.019Z,998.79
2016-11-22T04:57:02.000Z,998.8
2016-11-22T04:58:01.984Z,998.75
2016-11-22T04:59:01.962Z,998.67
2016-11-22T05:00:01.946Z,998.62
2016-11-22T05:01:01.930Z,998.57
2016-11-22T05:02:01.907Z,998.56
2016-11-22T05:03:01.889Z,998.48
2016-11-22T05:04:01.870Z,998.42
2016-11-22T05:05:01.859Z,998.4
2016-11-22T05:06:01.834Z,998.43
2016-11-22T05:07:01.818Z,998.41
2016-11-22T05:08:01.795Z,998.34
2016-11-22T05:09:01.783Z,998.33
2016-11-22T05:10:01.759Z,998.29
2016-11-22T05:11:01.739Z,998.3
2016-11-22T05:12:01.723Z,998.36
2016-11-22T05:13:01.709Z,998.36
2016-11-22T05:14:01.686Z,998.33
2016-11-22T05:15:01.671Z,998.22
2016-11-22T05:16:01.651Z,998.26
2016-11-22T05:17:01.631Z,998.18
2016-11-22T05:18:01.612Z,998.11
2016-11-22T05:19:01.600Z,998.11
2016-11-22T05:20:01.582Z,998.12
2016-11-22T05:21:01.561Z,998.15
2016-11-22T05:22:01.542Z,998.17
2016-11-22T05:23:01.521Z,998.14
2016-11-22T05:24:01.502Z,998.12
2016-11-22T05:25:01.483Z,998.1
2016-11-22T05:26:01.466Z,998.1
2016-11-22T05:27:01.453Z,998.16
2016-11-22T05:28:01.427Z,998.27
2016-11-22T05:29:01.413Z,998.3
2016-11-22T05:30:01.396Z,998.28
2016-11-22T05:31:01.373Z,998.27
2016-11-22T05:32:01.363Z,998.24
2016-11-22T05:33:01.337Z,998.17
2016-11-22T05:34:01.328Z,998.1
2016-11-22T05:35:01.302Z,998.12
2016-11-22T05:36:01.279Z,998.12
2016-11-22T05:37:01.263Z,998.25
2016-11-22T05:38:01.243Z,998.34
2016-11-22T05:39:01.227Z,998.42
2016-11-22T05:40:01.209Z,998.51
2016-11-22T05:41:01.194Z,998.61
2016-11-22T05:42:01.174Z,998.64
2016-11-22T05:43:01.155Z,998.57
2016-11-22T05:44:01.134Z,998.51
2016-11-22T05:45:01.114Z,998.55
2016-11-22T05:46:01.095Z,998.49
2016-11-22T05:47:01.082Z,998.55
2016-11-22T05:48:01.066Z,998.62
2016-11-22T05:49:01.041Z,998.65
2016-11-22T05:50:01.022Z,998.78
2016-11-22T05:51:01.005Z,998.92
2016-11-22T05:52:00.983Z,998.83
2016-11-22T05:53:00.974Z,998.76
2016-11-22T05:54:00.961Z,998.85
2016-11-22T05:55:00.934Z,998.89
2016-11-22T05:56:00.916Z,998.92
2016-11-22T05:57:00.895Z,999
2016-11-22T05:58:00.875Z,998.94
2016-11-22T05:59:00.855Z,998.99
2016-11-22T06:00:00.835Z,999.08
2016-11-22T06:01:00.822Z,999.1
2016-11-22T06:02:00.811Z,999.05
2016-11-22T06:03:00.782Z,998.99
2016-11-22T06:04:00.766Z,998.97
2016-11-22T06:05:00.745Z,999
2016-11-22T06:06:00.727Z,999.04
2016-11-22T06:07:00.713Z,999.04
2016-11-22T06:08:00.696Z,999.1
2016-11-22T06:09:00.675Z,999.13
2016-11-22T06:10:00.656Z,999.11
2016-11-22T06:11:00.637Z,999.05
2016-11-22T06:12:00.616Z,999.07
2016-11-22T06:13:00.597Z,999.12
2016-11-22T06:14:00.582Z,999.09
2016-11-22T06:15:00.567Z,999.19
2016-11-22T06:16:00.550Z,999.23
2016-11-22T06:17:00.527Z,999.24
2016-11-22T06:18:00.508Z,999.19
2016-11-22T06:19:00.487Z,999.18
2016-11-22T06:20:00.475Z,999.13
2016-11-22T06:21:00.447Z,999.12
2016-11-22T06:22:00.437Z,999.11
2016-11-22T06:23:00.418Z,999.11
2016-11-22T06:24:00.704Z,999.13
2016-11-22T06:25:00.377Z,999.11
2016-11-22T06:26:00.360Z,999.13
2016-11-22T06:27:00.333Z,999.15
2016-11-22T06:28:00.317Z,999.16
2016-11-22T06:29:00.306Z,999.19
2016-11-22T06:30:00.286Z,999.2
2016-11-22T06:31:00.266Z,999.18
2016-11-22T06:32:00.246Z,999.21
2016-11-22T06:33:00.223Z,999.29
2016-11-22T06:34:00.209Z,999.32
2016-11-22T06:35:00.187Z,999.39
2016-11-22T06:36:00.172Z,999.47
2016-11-22T06:37:00.148Z,999.45
2016-11-22T06:38:00.138Z,999.45
2016-11-22T06:39:00.118Z,999.49
2016-11-22T06:40:00.096Z,999.46
2016-11-22T06:41:00.074Z,999.46
2016-11-22T06:42:00.056Z,999.54
2016-11-22T06:43:00.037Z,999.6
2016-11-22T06:44:00.017Z,999.63
2016-11-22T06:44:59.997Z,999.62
2016-11-22T06:45:59.985Z,999.58
2016-11-22T06:46:59.964Z,999.61
2016-11-22T06:47:59.949Z,999.65
2016-11-22T06:48:59.927Z,999.65
2016-11-22T06:49:59.909Z,999.66
2016-11-22T06:50:59.887Z,999.71
2016-11-22T06:51:59.867Z,999.76
2016-11-22T06:52:59.848Z,999.81
2016-11-22T06:53:59.835Z,999.85
2016-11-22T06:54:59.813Z,999.87
2016-11-22T06:55:59.791Z,999.9
2016-11-22T06:56:59.770Z,999.88
2016-11-22T06:57:59.754Z,999.93
2016-11-22T06:58:59.738Z,999.97
2016-11-22T06:59:59.716Z,999.92
2016-11-22T07:00:59.697Z,999.91
2016-11-22T07:01:59.677Z,999.91
2016-11-22T07:02:59.661Z,999.93
2016-11-22T07:03:59.639Z,999.98
2016-11-22T07:04:59.628Z,999.93
2016-11-22T07:05:59.599Z,999.9
2016-11-22T07:06:59.586Z,999.91
2016-11-22T07:07:59.568Z,999.95
2016-11-22T07:08:59.546Z,1000
2016-11-22T07:09:59.528Z,999.99
2016-11-22T07:10:59.506Z,999.99
2016-11-22T07:11:59.497Z,1000
2016-11-22T07:12:59.466Z,1000.01
2016-11-22T07:13:59.452Z,1000.05
2016-11-22T07:14:59.437Z,1000.1
2016-11-22T07:15:59.417Z,1000.11
2016-11-22T07:16:59.397Z,1000.19
2016-11-22T07:17:59.417Z,1000.19
2016-11-22T07:18:59.357Z,1000.22
2016-11-22T07:19:59.341Z,1000.3
2016-11-22T07:20:59.317Z,1000.26
2016-11-22T07:21:59.304Z,1000.28
2016-11-22T07:22:59.286Z,1000.36
2016-11-22T07:23:59.265Z,1000.35
2016-11-22T07:24:59.243Z,1000.37
2016-11-22T07:25:59.236Z,1000.43
2016-11-22T07:26:59.206Z,1000.42
2016-11-22T07:27:59.189Z,1000.4
2016-11-22T07:28:59.169Z,1000.37
2016-11-22T07:29:59.159Z,1000.39
2016-11-22T07:30:59.131Z,1000.46
2016-11-22T07:31:59.117Z,1000.53
2016-11-22T07:32:59.090Z,1000.54
2016-11-22T07:33:59.076Z,1000.59
2016-11-22T07:34:59.052Z,1000.63
2016-11-22T07:35:59.047Z,1000.62
2016-11-22T07:36:59.014Z,1000.65
2016-11-22T07:37:58.997Z,1000.61
2016-11-22T07:38:58.975Z,1000.62
2016-11-22T07:39:58.966Z,1000.63
2016-11-22T07:40:58.940Z,1000.61
2016-11-22T07:41:58.927Z,1000.59
2016-11-22T07:42:58.908Z,1000.61
2016-11-22T07:43:58.885Z,1000.68
2016-11-22T07:44:58.865Z,1000.72
2016-11-22T07:45:58.846Z,1000.82
2016-11-22T07:46:58.825Z,1000.77
2016-11-22T07:47:58.810Z,1000.78
2016-11-22T07:48:58.796Z,1000.74
2016-11-22T07:49:58.775Z,1000.7
2016-11-22T07:50:58.751Z,1000.76
2016-11-22T07:51:58.740Z,1000.79
2016-11-22T07:52:58.716Z,1000.84
2016-11-22T07:53:58.695Z,1000.92
2016-11-22T07:54:58.682Z,1000.94
2016-11-22T07:55:58.664Z,1000.91
2016-11-22T07:56:58.645Z,1000.94
2016-11-22T07:57:58.626Z,1000.96
2016-11-22T07:58:58.605Z,1001.01
2016-11-22T07:59:58.584Z,1000.99
2016-11-22T08:00:58.568Z,1000.99
2016-11-22T08:01:58.670Z,1001
2016-11-22T08:02:58.529Z,1001.03
2016-11-22T08:03:58.523Z,1001.07
2016-11-22T08:04:58.494Z,1001.07
2016-11-22T08:05:58.484Z,1001.1
2016-11-22T08:06:58.462Z,1001.06
2016-11-22T08:07:58.436Z,1001.07
2016-11-22T08:08:58.419Z,1001.09
2016-11-22T08:09:58.403Z,1001.12
2016-11-22T08:10:58.383Z,1001.2
2016-11-22T08:11:58.363Z,1001.16
2016-11-22T08:12:58.350Z,1001.21
2016-11-22T08:13:58.335Z,1001.27
2016-11-22T08:14:58.308Z,1001.31
2016-11-22T08:15:58.293Z,1001.27
2016-11-22T08:16:58.275Z,1001.28
2016-11-22T08:17:58.254Z,1001.27
2016-11-22T08:18:58.244Z,1001.3
2016-11-22T08:19:58.223Z,1001.27
2016-11-22T08:20:58.201Z,1001.29
2016-11-22T08:21:58.181Z,1001.32
2016-11-22T08:22:58.162Z,1001.3
2016-11-22T08:23:58.143Z,1001.33
2016-11-22T08:24:58.123Z,1001.33
2016-11-22T08:25:58.114Z,1001.38
2016-11-22T08:26:58.092Z,1001.41
2016-11-22T08:27:58.069Z,1001.43
2016-11-22T08:28:58.051Z,1001.46
2016-11-22T08:29:58.036Z,1001.49
2016-11-22T08:30:58.023Z,1001.52
2016-11-22T08:31:57.998Z,1001.49
2016-11-22T08:32:57.982Z,1001.49
2016-11-22T08:33:57.960Z,1001.47
2016-11-22T08:34:57.946Z,1001.52
2016-11-22T08:35:57.928Z,1001.56
2016-11-22T08:36:57.907Z,1001.58
2016-11-22T08:37:57.893Z,1001.59
2016-11-22T08:38:57.878Z,1001.62
2016-11-22T08:39:57.852Z,1001.63
2016-11-22T08:40:57.838Z,1001.65
2016-11-22T08:41:57.824Z,1001.61
2016-11-22T08:42:57.801Z,1001.63
2016-11-22T08:43:57.782Z,1001.63
2016-11-22T08:44:57.764Z,1001.67
2016-11-22T08:45:57.753Z,1001.65
2016-11-22T08:46:57.731Z,1001.7
2016-11-22T08:47:57.714Z,1001.78
2016-11-22T08:48:57.702Z,1001.79
2016-11-22T08:49:57.676Z,1001.84
2016-11-22T08:50:57.673Z,1001.87
2016-11-22T08:51:57.643Z,1001.8
2016-11-22T08:52:57.625Z,1001.82
2016-11-22T08:53:57.614Z,1001.88
2016-11-22T08:54:57.590Z,1001.92
2016-11-22T08:55:57.572Z,1001.95
2016-11-22T08:56:57.557Z,1002
2016-11-22T08:57:57.543Z,1001.99
2016-11-22T08:58:57.523Z,1001.99
2016-11-22T08:59:57.512Z,1001.98
2016-11-22T09:00:57.488Z,1002
2016-11-22T09:01:57.573Z,1002
2016-11-22T09:02:57.457Z,1002.01
2016-11-22T09:03:57.473Z,1002.02
2016-11-22T09:04:57.419Z,1002
2016-11-22T09:05:57.452Z,1002.03
2016-11-22T09:06:57.382Z,1002.04
2016-11-22T09:07:57.370Z,1002.05
2016-11-22T09:08:57.353Z,1002.07
2016-11-22T09:09:57.333Z,1002.18
2016-11-22T09:10:57.314Z,1002.16
2016-11-22T09:11:57.347Z,1002.19
2016-11-22T09:12:57.290Z,1002.2
2016-11-22T09:13:57.262Z,1002.19
2016-11-22T09:14:57.262Z,1002.16
2016-11-22T09:15:57.284Z,1002.2
2016-11-22T09:16:57.212Z,1002.26
2016-11-22T09:17:57.197Z,1002.26
2016-11-22T09:18:57.177Z,1002.2
2016-11-22T09:19:57.165Z,1002.21
2016-11-22T09:20:57.139Z,1002.27
2016-11-22T09:21:57.172Z,1002.35
2016-11-22T09:22:57.138Z,1002.41
2016-11-22T09:23:57.136Z,1002.43
2016-11-22T09:24:57.070Z,1002.43
2016-11-22T09:25:57.052Z,1002.51
2016-11-22T09:26:57.033Z,1002.54
2016-11-22T09:27:57.016Z,1002.65
2016-11-22T09:28:57.002Z,1002.64
2016-11-22T09:29:56.979Z,1002.68
2016-11-22T09:30:56.962Z,1002.64
2016-11-22T09:31:56.944Z,1002.65
2016-11-22T09:32:56.929Z,1002.71
2016-11-22T09:33:56.912Z,1002.62
2016-11-22T09:34:56.892Z,1002.68
2016-11-22T09:35:56.873Z,1002.77
2016-11-22T09:36:56.857Z,1002.84
2016-11-22T09:37:56.845Z,1002.86
2016-11-22T09:38:56.833Z,1002.9
2016-11-22T09:39:56.810Z,1002.9
2016-11-22T09:40:56.790Z,1002.92
2016-11-22T09:41:56.772Z,1002.93
2016-11-22T09:42:56.755Z,1002.84
2016-11-22T09:43:56.736Z,1002.87
2016-11-22T09:44:56.721Z,1002.92
2016-11-22T09:45:56.708Z,1002.92
2016-11-22T09:46:56.688Z,1002.93
2016-11-22T09:47:56.672Z,1003.02
2016-11-22T09:48:56.654Z,1003.02
2016-11-22T09:49:56.643Z,1003.01
2016-11-22T09:50:56.624Z,1003.02
2016-11-22T09:51:56.613Z,1003.05
2016-11-22T09:52:56.592Z,1003.07
2016-11-22T09:53:56.573Z,1003.09
2016-11-22T09:54:56.563Z,1003.14
2016-11-22T09:55:56.542Z,1003.15
2016-11-22T09:56:56.526Z,1003.19
2016-11-22T09:57:56.510Z,1003.23
2016-11-22T09:58:56.494Z,1003.25
2016-11-22T09:59:56.483Z,1003.28
2016-11-22T10:00:56.462Z,1003.26
2016-11-22T10:01:56.442Z,1003.3
2016-11-22T10:02:56.424Z,1003.26
2016-11-22T10:03:56.410Z,1003.24
2016-11-22T10:04:56.393Z,1003.29
2016-11-22T10:05:56.374Z,1003.25
2016-11-22T10:06:56.364Z,1003.24
2016-11-22T10:07:56.342Z,1003.24
2016-11-22T10:08:56.332Z,1003.2
2016-11-22T10:09:56.314Z,1003.21
2016-11-22T10:10:56.293Z,1003.24
2016-11-22T10:11:56.280Z,1003.23
2016-11-22T10:12:56.263Z,1003.24
2016-11-22T10:13:56.253Z,1003.23
2016-11-22T10:14:56.230Z,1003.24
2016-11-22T10:15:56.215Z,1003.25
2016-11-22T10:16:56.202Z,1003.28
2016-11-22T10:17:56.182Z,1003.28
2016-11-22T10:18:56.174Z,1003.28
2016-11-22T10:19:56.151Z,1003.28
2016-11-22T10:20:56.133Z,1003.3
2016-11-22T10:21:56.122Z,1003.32
2016-11-22T10:22:56.103Z,1003.34
2016-11-22T10:23:56.094Z,1003.39
2016-11-22T10:24:56.072Z,1003.37
2016-11-22T10:25:56.062Z,1003.34
2016-11-22T10:26:56.047Z,1003.35
2016-11-22T10:27:56.023Z,1003.33
2016-11-22T10:28:56.012Z,1003.35
2016-11-22T10:29:55.991Z,1003.33
2016-11-22T10:30:55.976Z,1003.36
2016-11-22T10:31:55.967Z,1003.3
2016-11-22T10:32:55.945Z,1003.34
2016-11-22T10:33:55.935Z,1003.37
2016-11-22T10:34:55.915Z,1003.41
2016-11-22T10:35:55.903Z,1003.47
2016-11-22T10:36:55.881Z,1003.48
2016-11-22T10:37:55.863Z,1003.45
2016-11-22T10:38:55.848Z,1003.48
2016-11-22T10:39:55.834Z,1003.47
2016-11-22T10:40:55.817Z,1003.44
2016-11-22T10:41:55.803Z,1003.39
2016-11-22T10:42:55.787Z,1003.37
2016-11-22T10:43:55.774Z,1003.42
2016-11-22T10:44:55.754Z,1003.41
2016-11-22T10:45:55.735Z,1003.43
2016-11-22T10:46:55.724Z,1003.42
2016-11-22T10:47:55.703Z,1003.44
2016-11-22T10:48:55.689Z,1003.41
2016-11-22T10:49:55.673Z,1003.5
2016-11-22T10:50:55.654Z,1003.42
2016-11-22T10:51:55.646Z,1003.49
2016-11-22T10:52:55.626Z,1003.51
2016-11-22T10:53:55.615Z,1003.56
2016-11-22T10:54:55.600Z,1003.55
2016-11-22T10:55:55.574Z,1003.53
2016-11-22T10:56:55.561Z,1003.53
2016-11-22T10:57:55.543Z,1003.52
2016-11-22T10:58:55.524Z,1003.57
2016-11-22T10:59:55.515Z,1003.56
2016-11-22T11:00:55.496Z,1003.58
2016-11-22T11:01:55.484Z,1003.63
2016-11-22T11:02:55.464Z,1003.63
2016-11-22T11:03:55.445Z,1003.66
2016-11-22T11:04:55.437Z,1003.68
2016-11-22T11:05:55.414Z,1003.65
2016-11-22T11:06:55.395Z,1003.66
2016-11-22T11:07:55.388Z,1003.67
2016-11-22T11:08:55.364Z,1003.73
2016-11-22T11:09:55.352Z,1003.62
2016-11-22T11:10:55.336Z,1003.58
2016-11-22T11:11:55.316Z,1003.63
2016-11-22T11:12:55.307Z,1003.69
2016-11-22T11:13:55.284Z,1003.7
2016-11-22T11:14:55.275Z,1003.63
2016-11-22T11:15:55.254Z,1003.59
2016-11-22T11:16:55.307Z,1003.56
2016-11-22T11:17:55.216Z,1003.54
2016-11-22T11:18:55.309Z,1003.62
2016-11-22T11:19:55.184Z,1003.56
2016-11-22T11:20:55.177Z,1003.56
2016-11-22T11:21:55.158Z,1003.51
2016-11-22T11:22:55.134Z,1003.58
2016-11-22T11:23:55.121Z,1003.52
2016-11-22T11:24:55.102Z,1003.53
2016-11-22T11:25:55.088Z,1003.55
2016-11-22T11:26:55.075Z,1003.58
2016-11-22T11:27:55.055Z,1003.56
2016-11-22T11:28:55.045Z,1003.54
2016-11-22T11:29:55.026Z,1003.5
2016-11-22T11:30:55.005Z,1003.55
2016-11-22T11:31:54.984Z,1003.54
2016-11-22T11:32:54.976Z,1003.64
2016-11-22T11:33:54.955Z,1003.69
2016-11-22T11:34:54.938Z,1003.77
2016-11-22T11:35:54.928Z,1003.76
2016-11-22T11:36:54.908Z,1003.78
2016-11-22T11:37:54.898Z,1003.77
2016-11-22T11:38:54.901Z,1003.77
2016-11-22T11:39:54.861Z,1003.75
2016-11-22T11:40:54.841Z,1003.82
2016-11-22T11:41:54.824Z,1003.81
2016-11-22T11:42:54.914Z,1003.74
2016-11-22T11:43:54.796Z,1003.71
2016-11-22T11:44:54.837Z,1003.68
2016-11-22T11:45:54.765Z,1003.74
2016-11-22T11:46:54.753Z,1003.74
2016-11-22T11:47:54.736Z,1003.81
2016-11-22T11:48:54.717Z,1003.78
2016-11-22T11:49:54.712Z,1003.84
2016-11-22T11:50:54.684Z,1003.81
2016-11-22T11:51:54.672Z,1003.79
2016-11-22T11:52:54.665Z,1003.77
2016-11-22T11:53:54.645Z,1003.71
2016-11-22T11:54:54.623Z,1003.7
2016-11-22T11:55:54.618Z,1003.68
2016-11-22T11:56:54.597Z,1003.72
2016-11-22T11:57:54.583Z,1003.72
2016-11-22T11:58:54.567Z,1003.7
2016-11-22T11:59:54.552Z,1003.69
2016-11-22T12:00:54.536Z,1003.69
2016-11-22T12:01:54.525Z,1003.68
2016-11-22T12:02:54.506Z,1003.7
2016-11-22T12:03:54.495Z,1003.69
2016-11-22T12:04:54.482Z,1003.71
2016-11-22T12:05:54.458Z,1003.72
2016-11-22T12:06:54.456Z,1003.71
2016-11-22T12:07:54.438Z,1003.69
2016-11-22T12:08:54.418Z,1003.69
2016-11-22T12:09:54.406Z,1003.69
2016-11-22T12:10:54.396Z,1003.75
2016-11-22T12:11:54.378Z,1003.69
2016-11-22T12:12:54.366Z,1003.69
2016-11-22T12:13:54.346Z,1003.68
2016-11-22T12:14:54.331Z,1003.67
2016-11-22T12:15:54.317Z,1003.68
2016-11-22T12:16:54.304Z,1003.64
2016-11-22T12:17:54.287Z,1003.66
2016-11-22T12:18:54.265Z,1003.73
2016-11-22T12:19:54.267Z,1003.71
2016-11-22T12:20:54.242Z,1003.73